sensor_id;sensor_type;location;lat;lon;timestamp;temperature;humidity
74101;DHT22;62462;52.530;21.682;2023-12-20T00:01:35;8.00;95.90
74101;DHT22;62462;52.530;21.682;2023-12-20T00:04:02;7.90;96.30
74101;DHT22;62462;52.530;21.682;2023-12-20T00:06:28;7.90;96.40
74101;DHT22;62462;52.530;21.682;2023-12-20T00:08:53;7.90;96.40
74101;DHT22;62462;52.530;21.682;2023-12-20T00:11:19;7.90;96.30
74101;DHT22;62462;52.530;21.682;2023-12-20T00:13:45;7.90;96.40
74101;DHT22;62462;52.530;21.682;2023-12-20T00:16:10;7.90;96.40
74101;DHT22;62462;52.530;21.682;2023-12-20T00:18:36;8.00;96.40
74101;DHT22;62462;52.530;21.682;2023-12-20T00:21:02;8.00;96.20
74101;DHT22;62462;52.530;21.682;2023-12-20T00:23:27;8.00;96.20
74101;DHT22;62462;52.530;21.682;2023-12-20T00:25:53;8.00;96.20
74101;DHT22;62462;52.530;21.682;2023-12-20T00:28:19;7.90;96.20
74101;DHT22;62462;52.530;21.682;2023-12-20T00:30:44;7.90;96.40
74101;DHT22;62462;52.530;21.682;2023-12-20T00:33:10;7.90;96.60
74101;DHT22;62462;52.530;21.682;2023-12-20T00:35:36;7.90;96.60
74101;DHT22;62462;52.530;21.682;2023-12-20T00:38:02;7.90;96.50
74101;DHT22;62462;52.530;21.682;2023-12-20T00:40:27;7.90;96.60
74101;DHT22;62462;52.530;21.682;2023-12-20T00:42:53;7.90;96.90
74101;DHT22;62462;52.530;21.682;2023-12-20T00:45:19;7.80;97.00
74101;DHT22;62462;52.530;21.682;2023-12-20T00:47:45;7.90;97.00
74101;DHT22;62462;52.530;21.682;2023-12-20T00:50:10;7.90;96.70
74101;DHT22;62462;52.530;21.682;2023-12-20T00:52:36;7.90;96.80
74101;DHT22;62462;52.530;21.682;2023-12-20T00:55:02;7.90;96.80
74101;DHT22;62462;52.530;21.682;2023-12-20T00:57:29;7.90;96.90
74101;DHT22;62462;52.530;21.682;2023-12-20T00:59:55;7.90;96.70
74101;DHT22;62462;52.530;21.682;2023-12-20T01:02:20;8.00;96.90
74101;DHT22;62462;52.530;21.682;2023-12-20T01:04:46;8.00;96.70
74101;DHT22;62462;52.530;21.682;2023-12-20T01:07:12;8.00;96.80
74101;DHT22;62462;52.530;21.682;2023-12-20T01:09:38;8.00;96.70
74101;DHT22;62462;52.530;21.682;2023-12-20T01:12:03;8.10;96.60
74101;DHT22;62462;52.530;21.682;2023-12-20T01:14:29;8.10;96.40
74101;DHT22;62462;52.530;21.682;2023-12-20T01:16:55;8.10;96.20
74101;DHT22;62462;52.530;21.682;2023-12-20T01:19:20;8.10;96.10
74101;DHT22;62462;52.530;21.682;2023-12-20T01:21:46;8.10;96.30
74101;DHT22;62462;52.530;21.682;2023-12-20T01:24:12;8.10;96.30
74101;DHT22;62462;52.530;21.682;2023-12-20T01:26:38;8.10;96.50
74101;DHT22;62462;52.530;21.682;2023-12-20T01:29:03;8.10;96.50
74101;DHT22;62462;52.530;21.682;2023-12-20T01:31:29;8.10;96.60
74101;DHT22;62462;52.530;21.682;2023-12-20T01:33:55;8.10;96.50
74101;DHT22;62462;52.530;21.682;2023-12-20T01:36:21;8.10;96.60
74101;DHT22;62462;52.530;21.682;2023-12-20T01:38:46;8.10;96.50
74101;DHT22;62462;52.530;21.682;2023-12-20T01:41:12;8.10;96.40
74101;DHT22;62462;52.530;21.682;2023-12-20T01:43:38;8.10;96.60
74101;DHT22;62462;52.530;21.682;2023-12-20T01:46:04;8.10;96.50
74101;DHT22;62462;52.530;21.682;2023-12-20T01:48:31;8.20;96.20
74101;DHT22;62462;52.530;21.682;2023-12-20T01:51:00;8.20;96.30
74101;DHT22;62462;52.530;21.682;2023-12-20T01:53:28;8.20;96.20
74101;DHT22;62462;52.530;21.682;2023-12-20T01:55:55;8.10;96.30
74101;DHT22;62462;52.530;21.682;2023-12-20T01:58:22;8.20;96.20
74101;DHT22;62462;52.530;21.682;2023-12-20T02:00:49;8.20;96.10
74101;DHT22;62462;52.530;21.682;2023-12-20T02:03:16;8.20;96.10
74101;DHT22;62462;52.530;21.682;2023-12-20T02:05:42;8.20;95.90
74101;DHT22;62462;52.530;21.682;2023-12-20T02:08:08;8.10;95.90
74101;DHT22;62462;52.530;21.682;2023-12-20T02:10:34;8.10;96.00
74101;DHT22;62462;52.530;21.682;2023-12-20T02:13:00;8.10;96.30
74101;DHT22;62462;52.530;21.682;2023-12-20T02:15:26;8.00;96.40
74101;DHT22;62462;52.530;21.682;2023-12-20T02:17:51;8.10;96.60
74101;DHT22;62462;52.530;21.682;2023-12-20T02:20:17;8.10;96.30
74101;DHT22;62462;52.530;21.682;2023-12-20T02:22:43;8.10;96.40
74101;DHT22;62462;52.530;21.682;2023-12-20T02:25:09;8.00;96.30
74101;DHT22;62462;52.530;21.682;2023-12-20T02:27:35;8.00;96.60
74101;DHT22;62462;52.530;21.682;2023-12-20T02:30:00;8.00;96.60
74101;DHT22;62462;52.530;21.682;2023-12-20T02:32:26;8.00;96.30
74101;DHT22;62462;52.530;21.682;2023-12-20T02:34:53;8.00;96.00
74101;DHT22;62462;52.530;21.682;2023-12-20T02:37:19;7.90;96.30
74101;DHT22;62462;52.530;21.682;2023-12-20T02:39:44;7.90;96.30
74101;DHT22;62462;52.530;21.682;2023-12-20T02:42:10;7.90;96.30
74101;DHT22;62462;52.530;21.682;2023-12-20T02:44:36;7.90;96.50
74101;DHT22;62462;52.530;21.682;2023-12-20T02:47:02;7.90;96.20
74101;DHT22;62462;52.530;21.682;2023-12-20T02:49:28;7.90;96.40
74101;DHT22;62462;52.530;21.682;2023-12-20T02:51:53;8.00;96.40
74101;DHT22;62462;52.530;21.682;2023-12-20T02:54:19;8.10;96.30
74101;DHT22;62462;52.530;21.682;2023-12-20T02:56:45;8.10;95.90
74101;DHT22;62462;52.530;21.682;2023-12-20T02:59:11;8.20;95.90
74101;DHT22;62462;52.530;21.682;2023-12-20T03:01:42;8.20;95.70
74101;DHT22;62462;52.530;21.682;2023-12-20T03:04:08;8.20;95.60
74101;DHT22;62462;52.530;21.682;2023-12-20T03:06:34;8.30;95.60
74101;DHT22;62462;52.530;21.682;2023-12-20T03:08:59;8.30;95.10
74101;DHT22;62462;52.530;21.682;2023-12-20T03:11:28;8.30;95.60
74101;DHT22;62462;52.530;21.682;2023-12-20T03:13:55;8.20;95.30
74101;DHT22;62462;52.530;21.682;2023-12-20T03:16:20;8.20;95.50
74101;DHT22;62462;52.530;21.682;2023-12-20T03:18:46;8.20;95.60
74101;DHT22;62462;52.530;21.682;2023-12-20T03:21:12;8.20;95.60
74101;DHT22;62462;52.530;21.682;2023-12-20T03:23:37;8.20;95.50
74101;DHT22;62462;52.530;21.682;2023-12-20T03:26:05;8.30;95.40
74101;DHT22;62462;52.530;21.682;2023-12-20T03:28:32;8.30;95.80
74101;DHT22;62462;52.530;21.682;2023-12-20T03:30:57;8.20;95.30
74101;DHT22;62462;52.530;21.682;2023-12-20T03:33:23;8.20;95.60
74101;DHT22;62462;52.530;21.682;2023-12-20T03:35:49;8.20;95.70
74101;DHT22;62462;52.530;21.682;2023-12-20T03:38:14;8.30;95.50
74101;DHT22;62462;52.530;21.682;2023-12-20T03:40:40;8.30;95.40
74101;DHT22;62462;52.530;21.682;2023-12-20T03:43:06;8.30;95.10
74101;DHT22;62462;52.530;21.682;2023-12-20T03:45:31;8.30;95.20
74101;DHT22;62462;52.530;21.682;2023-12-20T03:47:57;8.20;95.60
74101;DHT22;62462;52.530;21.682;2023-12-20T03:50:23;8.10;95.90
74101;DHT22;62462;52.530;21.682;2023-12-20T03:52:49;8.10;96.10
74101;DHT22;62462;52.530;21.682;2023-12-20T03:55:15;8.10;96.10
74101;DHT22;62462;52.530;21.682;2023-12-20T03:57:41;8.10;95.90
74101;DHT22;62462;52.530;21.682;2023-12-20T04:00:10;8.10;96.20
74101;DHT22;62462;52.530;21.682;2023-12-20T04:02:37;8.10;96.10
74101;DHT22;62462;52.530;21.682;2023-12-20T04:05:03;8.20;96.00
74101;DHT22;62462;52.530;21.682;2023-12-20T04:07:29;8.20;95.80
74101;DHT22;62462;52.530;21.682;2023-12-20T04:09:55;8.20;95.60
74101;DHT22;62462;52.530;21.682;2023-12-20T04:12:20;8.10;95.60
74101;DHT22;62462;52.530;21.682;2023-12-20T04:14:46;8.10;95.80
74101;DHT22;62462;52.530;21.682;2023-12-20T04:17:12;8.10;95.80
74101;DHT22;62462;52.530;21.682;2023-12-20T04:19:37;8.10;95.70
74101;DHT22;62462;52.530;21.682;2023-12-20T04:22:03;8.10;95.80
74101;DHT22;62462;52.530;21.682;2023-12-20T04:24:29;8.20;95.40
74101;DHT22;62462;52.530;21.682;2023-12-20T04:26:55;8.20;95.30
74101;DHT22;62462;52.530;21.682;2023-12-20T04:29:20;8.20;95.40
74101;DHT22;62462;52.530;21.682;2023-12-20T04:31:46;8.10;95.30
74101;DHT22;62462;52.530;21.682;2023-12-20T04:34:11;8.10;95.70
74101;DHT22;62462;52.530;21.682;2023-12-20T04:36:37;8.10;95.90
74101;DHT22;62462;52.530;21.682;2023-12-20T04:39:03;8.00;95.60
74101;DHT22;62462;52.530;21.682;2023-12-20T04:41:28;8.00;95.50
74101;DHT22;62462;52.530;21.682;2023-12-20T04:43:54;8.00;95.80
74101;DHT22;62462;52.530;21.682;2023-12-20T04:46:20;8.00;95.80
74101;DHT22;62462;52.530;21.682;2023-12-20T04:48:45;8.00;95.80
74101;DHT22;62462;52.530;21.682;2023-12-20T04:51:11;8.00;95.70
74101;DHT22;62462;52.530;21.682;2023-12-20T04:53:37;8.10;95.60
74101;DHT22;62462;52.530;21.682;2023-12-20T04:56:03;8.00;95.40
74101;DHT22;62462;52.530;21.682;2023-12-20T04:58:28;8.00;95.50
74101;DHT22;62462;52.530;21.682;2023-12-20T05:00:54;8.00;95.70
74101;DHT22;62462;52.530;21.682;2023-12-20T05:03:20;8.00;95.70
74101;DHT22;62462;52.530;21.682;2023-12-20T05:05:46;7.90;95.80
74101;DHT22;62462;52.530;21.682;2023-12-20T05:08:11;8.00;95.90
74101;DHT22;62462;52.530;21.682;2023-12-20T05:10:37;8.00;95.70
74101;DHT22;62462;52.530;21.682;2023-12-20T05:13:03;8.00;95.80
74101;DHT22;62462;52.530;21.682;2023-12-20T05:15:28;8.00;95.50
74101;DHT22;62462;52.530;21.682;2023-12-20T05:17:54;8.00;95.50
74101;DHT22;62462;52.530;21.682;2023-12-20T05:20:20;8.00;95.50
74101;DHT22;62462;52.530;21.682;2023-12-20T05:22:45;7.90;95.60
74101;DHT22;62462;52.530;21.682;2023-12-20T05:25:11;7.90;95.80
74101;DHT22;62462;52.530;21.682;2023-12-20T05:27:37;7.90;95.70
74101;DHT22;62462;52.530;21.682;2023-12-20T05:30:03;7.90;95.60
74101;DHT22;62462;52.530;21.682;2023-12-20T05:32:30;8.00;95.80
74101;DHT22;62462;52.530;21.682;2023-12-20T05:34:56;8.10;95.60
74101;DHT22;62462;52.530;21.682;2023-12-20T05:37:22;8.10;95.10
74101;DHT22;62462;52.530;21.682;2023-12-20T05:39:47;8.20;95.10
74101;DHT22;62462;52.530;21.682;2023-12-20T05:42:13;8.20;94.70
74101;DHT22;62462;52.530;21.682;2023-12-20T05:44:39;8.10;94.70
74101;DHT22;62462;52.530;21.682;2023-12-20T05:47:05;8.10;94.70
74101;DHT22;62462;52.530;21.682;2023-12-20T05:49:30;8.10;95.00
74101;DHT22;62462;52.530;21.682;2023-12-20T05:51:57;8.10;95.00
74101;DHT22;62462;52.530;21.682;2023-12-20T05:54:22;8.10;95.10
74101;DHT22;62462;52.530;21.682;2023-12-20T05:56:48;8.10;95.10
74101;DHT22;62462;52.530;21.682;2023-12-20T05:59:14;8.10;94.80
74101;DHT22;62462;52.530;21.682;2023-12-20T06:01:40;8.10;95.10
74101;DHT22;62462;52.530;21.682;2023-12-20T06:04:05;8.10;94.90
74101;DHT22;62462;52.530;21.682;2023-12-20T06:06:31;8.10;94.80
74101;DHT22;62462;52.530;21.682;2023-12-20T06:08:57;8.20;94.70
74101;DHT22;62462;52.530;21.682;2023-12-20T06:11:23;8.10;94.40
74101;DHT22;62462;52.530;21.682;2023-12-20T06:13:48;8.10;94.70
74101;DHT22;62462;52.530;21.682;2023-12-20T06:16:18;8.10;95.10
74101;DHT22;62462;52.530;21.682;2023-12-20T06:18:43;8.00;95.30
74101;DHT22;62462;52.530;21.682;2023-12-20T06:21:09;8.10;95.00
74101;DHT22;62462;52.530;21.682;2023-12-20T06:23:38;8.00;95.10
74101;DHT22;62462;52.530;21.682;2023-12-20T06:26:04;8.00;95.40
74101;DHT22;62462;52.530;21.682;2023-12-20T06:28:30;8.00;95.50
74101;DHT22;62462;52.530;21.682;2023-12-20T06:30:55;8.00;95.60
74101;DHT22;62462;52.530;21.682;2023-12-20T06:33:22;8.00;95.70
74101;DHT22;62462;52.530;21.682;2023-12-20T06:35:49;8.00;95.50
74101;DHT22;62462;52.530;21.682;2023-12-20T06:38:14;8.00;95.50
74101;DHT22;62462;52.530;21.682;2023-12-20T06:40:40;8.00;95.50
74101;DHT22;62462;52.530;21.682;2023-12-20T06:43:06;8.10;95.50
74101;DHT22;62462;52.530;21.682;2023-12-20T06:45:32;8.10;95.30
74101;DHT22;62462;52.530;21.682;2023-12-20T06:47:58;8.10;95.10
74101;DHT22;62462;52.530;21.682;2023-12-20T06:50:24;8.10;95.10
74101;DHT22;62462;52.530;21.682;2023-12-20T06:52:49;8.10;95.40
74101;DHT22;62462;52.530;21.682;2023-12-20T06:55:15;8.10;95.50
74101;DHT22;62462;52.530;21.682;2023-12-20T06:57:42;8.00;95.60
74101;DHT22;62462;52.530;21.682;2023-12-20T07:00:08;8.00;95.70
74101;DHT22;62462;52.530;21.682;2023-12-20T07:02:36;8.00;95.90
74101;DHT22;62462;52.530;21.682;2023-12-20T07:05:02;8.00;95.70
74101;DHT22;62462;52.530;21.682;2023-12-20T07:07:27;8.00;95.90
74101;DHT22;62462;52.530;21.682;2023-12-20T07:09:53;8.10;95.80
74101;DHT22;62462;52.530;21.682;2023-12-20T07:12:19;8.10;95.40
74101;DHT22;62462;52.530;21.682;2023-12-20T07:14:45;8.10;95.70
74101;DHT22;62462;52.530;21.682;2023-12-20T07:17:11;8.10;95.70
74101;DHT22;62462;52.530;21.682;2023-12-20T07:19:39;8.10;95.70
74101;DHT22;62462;52.530;21.682;2023-12-20T07:22:06;8.20;95.60
74101;DHT22;62462;52.530;21.682;2023-12-20T07:24:32;8.20;95.50
74101;DHT22;62462;52.530;21.682;2023-12-20T07:26:59;8.20;95.40
74101;DHT22;62462;52.530;21.682;2023-12-20T07:29:25;8.20;95.00
74101;DHT22;62462;52.530;21.682;2023-12-20T07:31:51;8.20;95.30
74101;DHT22;62462;52.530;21.682;2023-12-20T07:34:17;8.20;95.50
74101;DHT22;62462;52.530;21.682;2023-12-20T07:36:43;8.20;95.40
74101;DHT22;62462;52.530;21.682;2023-12-20T07:39:09;8.10;95.90
74101;DHT22;62462;52.530;21.682;2023-12-20T07:41:35;8.10;95.90
74101;DHT22;62462;52.530;21.682;2023-12-20T07:44:01;8.10;96.00
74101;DHT22;62462;52.530;21.682;2023-12-20T07:46:27;8.10;96.00
74101;DHT22;62462;52.530;21.682;2023-12-20T07:48:52;8.00;96.00
74101;DHT22;62462;52.530;21.682;2023-12-20T07:51:18;8.00;96.20
74101;DHT22;62462;52.530;21.682;2023-12-20T07:53:44;8.00;96.40
74101;DHT22;62462;52.530;21.682;2023-12-20T07:56:20;8.10;96.30
74101;DHT22;62462;52.530;21.682;2023-12-20T07:58:46;8.10;96.30
74101;DHT22;62462;52.530;21.682;2023-12-20T08:01:15;8.10;96.00
74101;DHT22;62462;52.530;21.682;2023-12-20T08:03:41;8.10;95.90
74101;DHT22;62462;52.530;21.682;2023-12-20T08:06:06;8.10;96.10
74101;DHT22;62462;52.530;21.682;2023-12-20T08:08:32;8.10;96.00
74101;DHT22;62462;52.530;21.682;2023-12-20T08:10:58;8.20;96.00
74101;DHT22;62462;52.530;21.682;2023-12-20T08:13:26;8.20;95.80
74101;DHT22;62462;52.530;21.682;2023-12-20T08:15:52;8.20;95.80
74101;DHT22;62462;52.530;21.682;2023-12-20T08:18:18;8.20;95.90
74101;DHT22;62462;52.530;21.682;2023-12-20T08:20:44;8.20;96.20
74101;DHT22;62462;52.530;21.682;2023-12-20T08:23:09;8.10;95.90
74101;DHT22;62462;52.530;21.682;2023-12-20T08:25:35;8.10;96.20
74101;DHT22;62462;52.530;21.682;2023-12-20T08:28:04;8.10;96.30
74101;DHT22;62462;52.530;21.682;2023-12-20T08:30:29;8.10;96.40
74101;DHT22;62462;52.530;21.682;2023-12-20T08:32:56;8.20;96.40
74101;DHT22;62462;52.530;21.682;2023-12-20T08:35:22;8.20;96.00
74101;DHT22;62462;52.530;21.682;2023-12-20T08:37:47;8.20;96.10
74101;DHT22;62462;52.530;21.682;2023-12-20T08:40:13;8.20;96.30
74101;DHT22;62462;52.530;21.682;2023-12-20T08:42:39;8.20;96.10
74101;DHT22;62462;52.530;21.682;2023-12-20T08:45:05;8.30;96.10
74101;DHT22;62462;52.530;21.682;2023-12-20T08:47:31;8.30;95.80
74101;DHT22;62462;52.530;21.682;2023-12-20T08:49:57;8.20;95.80
74101;DHT22;62462;52.530;21.682;2023-12-20T08:52:25;8.20;96.30
74101;DHT22;62462;52.530;21.682;2023-12-20T08:54:53;8.20;96.90
74101;DHT22;62462;52.530;21.682;2023-12-20T08:57:22;8.20;96.10
74101;DHT22;62462;52.530;21.682;2023-12-20T08:59:51;8.20;96.10
74101;DHT22;62462;52.530;21.682;2023-12-20T09:02:17;8.20;96.00
74101;DHT22;62462;52.530;21.682;2023-12-20T09:04:43;8.20;96.20
74101;DHT22;62462;52.530;21.682;2023-12-20T09:07:25;8.20;96.30
74101;DHT22;62462;52.530;21.682;2023-12-20T09:09:51;8.20;96.30
74101;DHT22;62462;52.530;21.682;2023-12-20T09:12:20;8.20;96.30
74101;DHT22;62462;52.530;21.682;2023-12-20T09:14:50;8.30;96.00
74101;DHT22;62462;52.530;21.682;2023-12-20T09:17:16;8.20;96.10
74101;DHT22;62462;52.530;21.682;2023-12-20T09:19:43;8.20;96.20
74101;DHT22;62462;52.530;21.682;2023-12-20T09:22:12;8.20;96.30
74101;DHT22;62462;52.530;21.682;2023-12-20T09:24:37;8.20;96.00
74101;DHT22;62462;52.530;21.682;2023-12-20T09:27:04;8.20;96.20
74101;DHT22;62462;52.530;21.682;2023-12-20T09:29:30;8.20;96.30
74101;DHT22;62462;52.530;21.682;2023-12-20T09:31:56;8.30;96.50
74101;DHT22;62462;52.530;21.682;2023-12-20T09:34:23;8.30;96.40
74101;DHT22;62462;52.530;21.682;2023-12-20T09:36:49;8.30;96.10
74101;DHT22;62462;52.530;21.682;2023-12-20T09:39:17;8.20;96.30
74101;DHT22;62462;52.530;21.682;2023-12-20T09:42:00;8.20;96.40
74101;DHT22;62462;52.530;21.682;2023-12-20T09:44:27;8.30;96.60
74101;DHT22;62462;52.530;21.682;2023-12-20T09:46:55;8.30;96.90
74101;DHT22;62462;52.530;21.682;2023-12-20T09:49:21;8.30;96.40
74101;DHT22;62462;52.530;21.682;2023-12-20T09:51:47;8.30;96.50
74101;DHT22;62462;52.530;21.682;2023-12-20T09:54:21;8.30;96.30
74101;DHT22;62462;52.530;21.682;2023-12-20T09:56:47;8.30;96.50
74101;DHT22;62462;52.530;21.682;2023-12-20T09:59:13;8.40;96.10
74101;DHT22;62462;52.530;21.682;2023-12-20T10:01:42;8.30;96.30
74101;DHT22;62462;52.530;21.682;2023-12-20T10:04:09;8.30;96.30
74101;DHT22;62462;52.530;21.682;2023-12-20T10:06:40;8.30;96.30
74101;DHT22;62462;52.530;21.682;2023-12-20T10:09:06;8.40;96.40
74101;DHT22;62462;52.530;21.682;2023-12-20T10:11:31;8.30;96.40
74101;DHT22;62462;52.530;21.682;2023-12-20T10:14:00;8.30;96.70
74101;DHT22;62462;52.530;21.682;2023-12-20T10:16:29;8.30;96.40
74101;DHT22;62462;52.530;21.682;2023-12-20T10:18:56;8.40;96.50
74101;DHT22;62462;52.530;21.682;2023-12-20T10:21:22;8.40;96.00
74101;DHT22;62462;52.530;21.682;2023-12-20T10:23:50;8.40;96.20
74101;DHT22;62462;52.530;21.682;2023-12-20T10:26:23;8.40;96.20
74101;DHT22;62462;52.530;21.682;2023-12-20T10:28:50;8.40;96.30
74101;DHT22;62462;52.530;21.682;2023-12-20T10:31:30;8.30;96.30
74101;DHT22;62462;52.530;21.682;2023-12-20T10:34:01;8.30;96.30
74101;DHT22;62462;52.530;21.682;2023-12-20T10:36:31;8.30;96.40
74101;DHT22;62462;52.530;21.682;2023-12-20T10:38:58;8.30;96.50
74101;DHT22;62462;52.530;21.682;2023-12-20T10:41:31;8.30;96.50
74101;DHT22;62462;52.530;21.682;2023-12-20T10:44:00;8.30;96.70
74101;DHT22;62462;52.530;21.682;2023-12-20T10:46:29;8.20;96.70
74101;DHT22;62462;52.530;21.682;2023-12-20T10:48:56;8.30;96.80
74101;DHT22;62462;52.530;21.682;2023-12-20T10:51:23;8.30;96.50
74101;DHT22;62462;52.530;21.682;2023-12-20T10:53:50;8.40;96.50
74101;DHT22;62462;52.530;21.682;2023-12-20T10:56:20;8.40;96.30
74101;DHT22;62462;52.530;21.682;2023-12-20T10:58:47;8.40;96.40
74101;DHT22;62462;52.530;21.682;2023-12-20T11:01:14;8.40;96.40
74101;DHT22;62462;52.530;21.682;2023-12-20T11:03:50;8.40;96.10
74101;DHT22;62462;52.530;21.682;2023-12-20T11:14:41;8.30;96.60
74101;DHT22;62462;52.530;21.682;2023-12-20T11:17:09;8.30;96.50
74101;DHT22;62462;52.530;21.682;2023-12-20T11:19:37;8.30;96.60
74101;DHT22;62462;52.530;21.682;2023-12-20T11:22:04;8.30;96.60
74101;DHT22;62462;52.530;21.682;2023-12-20T11:24:31;8.30;96.50
74101;DHT22;62462;52.530;21.682;2023-12-20T11:27:00;8.30;96.50
74101;DHT22;62462;52.530;21.682;2023-12-20T11:29:36;8.40;96.20
74101;DHT22;62462;52.530;21.682;2023-12-20T11:34:47;8.40;96.00
74101;DHT22;62462;52.530;21.682;2023-12-20T11:37:13;8.40;95.90
74101;DHT22;62462;52.530;21.682;2023-12-20T11:39:39;8.30;96.00
74101;DHT22;62462;52.530;21.682;2023-12-20T11:42:05;8.30;96.10
74101;DHT22;62462;52.530;21.682;2023-12-20T11:44:32;8.30;96.40
74101;DHT22;62462;52.530;21.682;2023-12-20T11:46:58;8.40;96.10
74101;DHT22;62462;52.530;21.682;2023-12-20T11:49:24;8.30;95.80
74101;DHT22;62462;52.530;21.682;2023-12-20T11:51:50;8.30;96.00
74101;DHT22;62462;52.530;21.682;2023-12-20T11:54:16;8.30;96.00
74101;DHT22;62462;52.530;21.682;2023-12-20T11:56:42;8.30;96.30
74101;DHT22;62462;52.530;21.682;2023-12-20T11:59:08;8.30;96.20
74101;DHT22;62462;52.530;21.682;2023-12-20T12:01:34;8.30;96.10
74101;DHT22;62462;52.530;21.682;2023-12-20T12:04:04;8.40;95.80
74101;DHT22;62462;52.530;21.682;2023-12-20T12:06:30;8.40;96.00
74101;DHT22;62462;52.530;21.682;2023-12-20T12:08:56;8.40;95.40
74101;DHT22;62462;52.530;21.682;2023-12-20T12:11:22;8.40;95.40
74101;DHT22;62462;52.530;21.682;2023-12-20T12:13:48;8.40;95.40
74101;DHT22;62462;52.530;21.682;2023-12-20T12:16:17;8.40;95.80
74101;DHT22;62462;52.530;21.682;2023-12-20T12:18:44;8.30;95.50
74101;DHT22;62462;52.530;21.682;2023-12-20T12:21:12;8.30;95.50
74101;DHT22;62462;52.530;21.682;2023-12-20T12:23:43;8.30;95.70
74101;DHT22;62462;52.530;21.682;2023-12-20T12:26:09;8.30;95.50
74101;DHT22;62462;52.530;21.682;2023-12-20T12:28:35;8.30;95.30
74101;DHT22;62462;52.530;21.682;2023-12-20T12:31:01;8.40;95.60
74101;DHT22;62462;52.530;21.682;2023-12-20T12:33:27;8.40;95.40
74101;DHT22;62462;52.530;21.682;2023-12-20T12:35:53;8.50;95.00
74101;DHT22;62462;52.530;21.682;2023-12-20T12:38:21;8.50;94.60
74101;DHT22;62462;52.530;21.682;2023-12-20T12:40:47;8.40;94.60
74101;DHT22;62462;52.530;21.682;2023-12-20T12:43:12;8.30;94.90
74101;DHT22;62462;52.530;21.682;2023-12-20T12:45:38;8.30;95.20
74101;DHT22;62462;52.530;21.682;2023-12-20T12:48:05;8.30;95.10
74101;DHT22;62462;52.530;21.682;2023-12-20T12:50:31;8.40;95.40
74101;DHT22;62462;52.530;21.682;2023-12-20T12:52:57;8.50;95.20
74101;DHT22;62462;52.530;21.682;2023-12-20T12:55:22;8.50;94.70
74101;DHT22;62462;52.530;21.682;2023-12-20T12:57:48;8.40;94.80
74101;DHT22;62462;52.530;21.682;2023-12-20T13:00:14;8.40;94.50
74101;DHT22;62462;52.530;21.682;2023-12-20T13:02:40;8.40;94.70
74101;DHT22;62462;52.530;21.682;2023-12-20T13:05:08;8.40;94.60
74101;DHT22;62462;52.530;21.682;2023-12-20T13:07:34;8.40;94.40
74101;DHT22;62462;52.530;21.682;2023-12-20T13:09:59;8.40;94.80
74101;DHT22;62462;52.530;21.682;2023-12-20T13:12:26;8.40;94.20
74101;DHT22;62462;52.530;21.682;2023-12-20T13:14:51;8.40;94.00
74101;DHT22;62462;52.530;21.682;2023-12-20T13:17:17;8.30;91.70
74101;DHT22;62462;52.530;21.682;2023-12-20T13:19:43;8.20;90.80
74101;DHT22;62462;52.530;21.682;2023-12-20T13:22:08;8.00;91.30
74101;DHT22;62462;52.530;21.682;2023-12-20T13:24:34;8.00;91.90
74101;DHT22;62462;52.530;21.682;2023-12-20T13:27:00;8.10;92.30
74101;DHT22;62462;52.530;21.682;2023-12-20T13:29:26;8.00;91.90
74101;DHT22;62462;52.530;21.682;2023-12-20T13:31:54;8.00;92.30
74101;DHT22;62462;52.530;21.682;2023-12-20T13:34:20;7.90;92.70
74101;DHT22;62462;52.530;21.682;2023-12-20T13:36:47;7.90;93.20
74101;DHT22;62462;52.530;21.682;2023-12-20T13:39:13;7.90;93.40
74101;DHT22;62462;52.530;21.682;2023-12-20T13:41:39;8.00;93.50
74101;DHT22;62462;52.530;21.682;2023-12-20T13:44:05;8.00;93.50
74101;DHT22;62462;52.530;21.682;2023-12-20T13:46:31;8.00;93.50
74101;DHT22;62462;52.530;21.682;2023-12-20T13:48:56;8.10;93.80
74101;DHT22;62462;52.530;21.682;2023-12-20T13:51:22;8.10;93.70
74101;DHT22;62462;52.530;21.682;2023-12-20T13:53:48;8.20;93.60
74101;DHT22;62462;52.530;21.682;2023-12-20T13:56:15;8.10;92.70
74101;DHT22;62462;52.530;21.682;2023-12-20T13:58:41;8.10;93.10
74101;DHT22;62462;52.530;21.682;2023-12-20T14:01:10;8.00;92.70
74101;DHT22;62462;52.530;21.682;2023-12-20T14:03:36;8.00;92.70
74101;DHT22;62462;52.530;21.682;2023-12-20T14:06:02;8.00;92.20
74101;DHT22;62462;52.530;21.682;2023-12-20T14:08:27;7.90;92.50
74101;DHT22;62462;52.530;21.682;2023-12-20T14:10:53;7.90;92.60
74101;DHT22;62462;52.530;21.682;2023-12-20T14:13:19;7.90;92.50
74101;DHT22;62462;52.530;21.682;2023-12-20T14:15:46;7.90;91.90
74101;DHT22;62462;52.530;21.682;2023-12-20T14:18:12;7.90;91.90
74101;DHT22;62462;52.530;21.682;2023-12-20T14:20:40;7.90;91.70
74101;DHT22;62462;52.530;21.682;2023-12-20T14:23:08;7.90;91.30
74101;DHT22;62462;52.530;21.682;2023-12-20T14:25:35;7.80;91.60
74101;DHT22;62462;52.530;21.682;2023-12-20T14:28:03;7.90;91.50
74101;DHT22;62462;52.530;21.682;2023-12-20T14:30:29;7.90;91.00
74101;DHT22;62462;52.530;21.682;2023-12-20T14:32:55;7.80;91.40
74101;DHT22;62462;52.530;21.682;2023-12-20T14:35:20;7.80;91.10
74101;DHT22;62462;52.530;21.682;2023-12-20T14:37:46;7.70;91.60
74101;DHT22;62462;52.530;21.682;2023-12-20T14:40:12;7.70;91.70
74101;DHT22;62462;52.530;21.682;2023-12-20T14:42:45;7.70;92.10
74101;DHT22;62462;52.530;21.682;2023-12-20T14:45:11;7.70;92.30
74101;DHT22;62462;52.530;21.682;2023-12-20T14:47:38;7.70;92.10
74101;DHT22;62462;52.530;21.682;2023-12-20T14:50:05;7.60;91.80
74101;DHT22;62462;52.530;21.682;2023-12-20T14:52:32;7.60;92.30
74101;DHT22;62462;52.530;21.682;2023-12-20T14:55:00;7.50;92.30
74101;DHT22;62462;52.530;21.682;2023-12-20T14:57:25;7.50;92.10
74101;DHT22;62462;52.530;21.682;2023-12-20T14:59:52;7.50;92.20
74101;DHT22;62462;52.530;21.682;2023-12-20T15:02:17;7.40;92.00
74101;DHT22;62462;52.530;21.682;2023-12-20T15:04:43;7.40;92.20
74101;DHT22;62462;52.530;21.682;2023-12-20T15:07:09;7.40;92.40
74101;DHT22;62462;52.530;21.682;2023-12-20T15:09:35;7.40;92.70
74101;DHT22;62462;52.530;21.682;2023-12-20T15:12:00;7.40;92.60
74101;DHT22;62462;52.530;21.682;2023-12-20T15:14:26;7.50;92.50
74101;DHT22;62462;52.530;21.682;2023-12-20T15:16:53;7.40;92.50
74101;DHT22;62462;52.530;21.682;2023-12-20T15:19:21;7.40;92.60
74101;DHT22;62462;52.530;21.682;2023-12-20T15:21:47;7.50;92.50
74101;DHT22;62462;52.530;21.682;2023-12-20T15:24:13;7.50;92.40
74101;DHT22;62462;52.530;21.682;2023-12-20T15:26:41;7.40;92.20
74101;DHT22;62462;52.530;21.682;2023-12-20T15:29:08;7.50;92.60
74101;DHT22;62462;52.530;21.682;2023-12-20T15:31:36;7.50;92.50
74101;DHT22;62462;52.530;21.682;2023-12-20T15:34:03;7.50;92.10
74101;DHT22;62462;52.530;21.682;2023-12-20T15:36:29;7.50;92.10